createdAt,value
2018-02-09T00:01:12.972Z,62.53
2018-02-09T00:03:40.714Z,59.03
2018-02-09T00:06:08.276Z,62.60
2018-02-09T00:08:35.976Z,58.10
2018-02-09T00:11:03.566Z,57.28
2018-02-09T00:13:31.206Z,59.33
2018-02-09T00:15:59.737Z,56.47
2018-02-09T00:18:27.321Z,53.38
2018-02-09T00:20:54.908Z,57.83
2018-02-09T00:23:23.233Z,56.63
2018-02-09T00:25:50.982Z,54.88
2018-02-09T00:28:18.551Z,53.15
2018-02-09T00:30:46.121Z,54.40
2018-02-09T00:33:13.695Z,56.80
2018-02-09T00:35:41.325Z,53.42
2018-02-09T00:38:08.873Z,52.35
2018-02-09T00:40:36.453Z,56.78
2018-02-09T00:43:04.114Z,56.45
2018-02-09T00:45:31.663Z,52.28
2018-02-09T00:47:59.277Z,59.90
2018-02-09T00:50:26.828Z,55.35
2018-02-09T00:52:54.389Z,58.65
2018-02-09T00:55:22.054Z,55.97
2018-02-09T00:57:49.628Z,54.05
2018-02-09T01:00:17.181Z,56.20
2018-02-09T01:02:44.753Z,56.35
2018-02-09T01:05:12.358Z,56.58
2018-02-09T01:07:39.901Z,55.78
2018-02-09T01:10:08.241Z,55.47
2018-02-09T01:12:35.806Z,55.47
2018-02-09T01:15:03.386Z,58.70
2018-02-09T01:17:31.713Z,53.63
2018-02-09T01:19:59.410Z,52.92
2018-02-09T01:22:26.982Z,57.28
2018-02-09T01:24:54.536Z,52.53
2018-02-09T01:27:22.109Z,53.25
2018-02-09T01:29:50.451Z,53.30
2018-02-09T01:32:18.165Z,57.65
2018-02-09T01:34:46.525Z,51.63
2018-02-09T01:37:14.882Z,57.15
2018-02-09T01:39:42.461Z,53.17
2018-02-09T01:42:10.040Z,57.22
2018-02-09T01:44:38.464Z,56.42
2018-02-09T01:47:06.058Z,58.38
2018-02-09T01:49:33.619Z,52.33
2018-02-09T01:52:01.169Z,53.60
2018-02-09T01:54:28.726Z,54.50
2018-02-09T01:56:56.296Z,57.00
2018-02-09T01:59:24.074Z,52.62
2018-02-09T02:01:51.630Z,57.95
2018-02-09T02:04:19.218Z,53.30
2018-02-09T02:06:46.795Z,48.90
2018-02-09T02:09:14.385Z,52.85
2018-02-09T02:11:42.028Z,52.97
2018-02-09T02:14:09.573Z,57.60
2018-02-09T02:16:37.214Z,56.20
2018-02-09T02:19:05.640Z,52.42
2018-02-09T02:21:33.396Z,54.00
2018-02-09T02:24:00.953Z,57.05
2018-02-09T02:26:28.531Z,54.20
2018-02-09T02:28:56.097Z,51.08
2018-02-09T02:31:23.706Z,55.60
2018-02-09T02:33:52.115Z,53.08
2018-02-09T02:36:19.783Z,53.53
2018-02-09T02:38:47.366Z,53.03
2018-02-09T02:41:14.951Z,53.30
2018-02-09T02:43:42.497Z,50.53
2018-02-09T02:46:10.075Z,53.92
2018-02-09T02:48:37.634Z,55.42
2018-02-09T02:51:05.443Z,55.35
2018-02-09T02:53:33.012Z,53.63
2018-02-09T02:56:00.580Z,50.38
2018-02-09T02:58:28.164Z,52.05
2018-02-09T03:00:55.872Z,52.40
2018-02-09T03:03:23.432Z,49.47
2018-02-09T03:05:51.063Z,51.85
2018-02-09T03:08:19.450Z,51.33
2018-02-09T03:10:47.770Z,56.08
2018-02-09T03:13:15.942Z,50.42
2018-02-09T03:15:43.513Z,53.83
2018-02-09T03:18:11.198Z,49.90
2018-02-09T03:20:38.757Z,51.47
2018-02-09T03:23:06.329Z,52.47
2018-02-09T03:25:33.913Z,54.00
2018-02-09T03:28:02.480Z,49.95
2018-02-09T03:30:30.849Z,51.65
2018-02-09T03:32:58.407Z,47.10
2018-02-09T03:35:26.114Z,51.13
2018-02-09T03:37:54.481Z,50.90
2018-02-09T03:40:22.812Z,52.10
2018-02-09T03:42:50.422Z,50.38
2018-02-09T03:45:18.762Z,51.33
2018-02-09T03:47:46.329Z,50.97
2018-02-09T03:50:13.914Z,51.72
2018-02-09T03:52:42.389Z,51.45
2018-02-09T03:55:09.950Z,52.45
2018-02-09T03:57:38.289Z,48.80
2018-02-09T04:00:05.842Z,50.80
2018-02-09T04:02:33.448Z,49.38
2018-02-09T04:05:01.020Z,49.53
2018-02-09T04:07:29.566Z,51.42
2018-02-09T04:09:57.117Z,48.95
2018-02-09T04:12:24.713Z,49.55
2018-02-09T04:14:52.271Z,47.72
2018-02-09T04:17:20.602Z,52.72
2018-02-09T04:19:48.157Z,53.10
2018-02-09T04:22:15.822Z,51.42
2018-02-09T04:24:44.301Z,52.35
2018-02-09T04:27:11.859Z,49.88
2018-02-09T04:29:39.437Z,48.92
2018-02-09T04:32:07.002Z,49.75
2018-02-09T04:34:34.560Z,49.20
2018-02-09T04:37:02.159Z,51.90
2018-02-09T04:39:29.721Z,52.47
2018-02-09T04:41:57.270Z,47.70
2018-02-09T04:44:24.865Z,49.53
2018-02-09T04:46:52.416Z,49.50
2018-02-09T04:49:20.833Z,49.80
2018-02-09T04:51:48.393Z,44.47
2018-02-09T04:54:15.960Z,49.05
2018-02-09T04:56:43.518Z,49.80
2018-02-09T04:59:11.081Z,45.78
2018-02-09T05:01:38.860Z,48.17
2018-02-09T05:04:06.448Z,50.35
2018-02-09T05:06:34.118Z,46.55
2018-02-09T05:09:01.674Z,46.83
2018-02-09T05:11:29.248Z,47.17
2018-02-09T05:13:57.566Z,46.80
2018-02-09T05:16:29.594Z,47.15
2018-02-09T05:18:57.925Z,47.15
2018-02-09T05:21:25.585Z,46.22
2018-02-09T05:23:53.260Z,47.70
2018-02-09T05:26:20.838Z,47.88
2018-02-09T05:28:48.413Z,44.63
2018-02-09T05:31:16.775Z,51.95
2018-02-09T05:33:44.363Z,44.65
2018-02-09T05:36:12.697Z,43.87
2018-02-09T05:38:40.246Z,42.60
2018-02-09T05:41:07.863Z,47.85
2018-02-09T05:43:36.349Z,44.55
2018-02-09T05:46:04.684Z,46.58
2018-02-09T05:48:32.360Z,46.22
2018-02-09T05:51:00.014Z,44.00
2018-02-09T05:53:27.564Z,48.65
2018-02-09T05:55:55.160Z,43.50
2018-02-09T05:58:23.529Z,46.60
2018-02-09T06:00:51.237Z,48.53
2018-02-09T06:03:18.954Z,45.90
2018-02-09T06:05:46.562Z,46.42
2018-02-09T06:08:14.159Z,46.75
2018-02-09T06:10:41.885Z,46.75
2018-02-09T06:13:09.594Z,45.80
2018-02-09T06:15:37.294Z,44.95
2018-02-09T06:18:05.080Z,44.08
2018-02-09T06:20:32.672Z,47.03
2018-02-09T06:23:00.245Z,48.03
2018-02-09T06:25:28.019Z,48.00
2018-02-09T06:27:56.731Z,45.22
2018-02-09T06:30:25.288Z,46.03
2018-02-09T06:32:52.860Z,44.75
2018-02-09T06:35:20.446Z,44.38
2018-02-09T06:37:47.986Z,45.90
2018-02-09T06:40:16.472Z,48.63
2018-02-09T06:42:45.069Z,47.80
2018-02-09T06:45:12.698Z,48.47
2018-02-09T06:47:40.252Z,49.58
2018-02-09T06:50:07.832Z,50.50
2018-02-09T06:52:36.207Z,47.47
2018-02-09T06:55:04.294Z,47.80
2018-02-09T06:57:32.011Z,46.40
2018-02-09T06:59:59.605Z,51.05
2018-02-09T07:02:27.426Z,45.63
2018-02-09T07:04:55.147Z,47.45
2018-02-09T07:07:24.000Z,44.17
2018-02-09T07:09:51.748Z,50.25
2018-02-09T07:12:19.394Z,47.90
2018-02-09T07:14:46.955Z,46.97
2018-02-09T07:17:14.669Z,48.60
2018-02-09T07:19:43.036Z,50.28
2018-02-09T07:22:10.592Z,51.15
2018-02-09T07:24:38.157Z,46.75
2018-02-09T07:27:05.733Z,48.55
2018-02-09T07:29:33.479Z,45.12
2018-02-09T07:32:01.122Z,48.03
2018-02-09T07:34:28.735Z,45.53
2018-02-09T07:36:56.314Z,50.50
2018-02-09T07:39:23.931Z,45.75
2018-02-09T07:41:51.485Z,44.30
2018-02-09T07:44:19.053Z,44.90
2018-02-09T07:46:46.787Z,43.70
2018-02-09T07:49:25.072Z,46.22
2018-02-09T07:51:53.381Z,44.55
2018-02-09T07:54:20.941Z,43.45
2018-02-09T07:56:48.555Z,41.95
2018-02-09T07:59:16.937Z,46.15
2018-02-09T08:01:45.394Z,42.60
2018-02-09T08:04:14.059Z,41.70
2018-02-09T08:06:41.624Z,37.00
2018-02-09T08:09:09.291Z,45.58
2018-02-09T08:11:36.887Z,36.30
2018-02-09T08:14:05.205Z,40.12
2018-02-09T08:16:32.832Z,40.58
2018-02-09T08:19:01.259Z,41.30
2018-02-09T08:21:28.831Z,39.65
2018-02-09T08:23:56.416Z,35.13
2018-02-09T08:26:23.983Z,30.85
2018-02-09T08:28:51.774Z,38.25
2018-02-09T08:31:19.413Z,27.92
2018-02-09T08:33:47.797Z,37.90
2018-02-09T08:36:15.378Z,35.83
2018-02-09T08:38:42.990Z,42.72
2018-02-09T08:41:10.727Z,37.45
2018-02-09T08:43:38.306Z,40.28
2018-02-09T08:46:05.985Z,40.63
2018-02-09T08:48:34.364Z,39.78
2018-02-09T08:51:02.062Z,39.72
2018-02-09T08:53:30.418Z,41.37
2018-02-09T08:55:58.991Z,45.15
2018-02-09T08:58:26.579Z,39.92
2018-02-09T09:00:55.092Z,42.58
2018-02-09T09:03:22.671Z,41.92
2018-02-09T09:05:50.258Z,44.53
2018-02-09T09:08:17.861Z,43.08
2018-02-09T09:10:45.435Z,41.37
2018-02-09T09:13:13.015Z,42.45
2018-02-09T09:15:40.661Z,45.55
2018-02-09T09:18:08.270Z,44.95
2018-02-09T09:20:35.823Z,45.12
2018-02-09T09:23:03.444Z,45.60
2018-02-09T09:25:31.061Z,45.85
2018-02-09T09:27:58.612Z,47.03
2018-02-09T09:30:26.291Z,43.13
2018-02-09T09:32:54.709Z,44.92
2018-02-09T09:35:22.322Z,44.25
2018-02-09T09:37:49.918Z,44.72
2018-02-09T09:40:17.500Z,46.72
2018-02-09T09:42:45.067Z,46.28
2018-02-09T09:45:12.640Z,45.05
2018-02-09T09:47:40.221Z,45.58
2018-02-09T09:50:07.818Z,47.15
2018-02-09T09:52:35.388Z,47.28
2018-02-09T09:55:03.037Z,40.00
2018-02-09T09:57:30.737Z,43.05
2018-02-09T09:59:59.122Z,43.47
2018-02-09T10:02:39.675Z,44.40
2018-02-09T10:05:08.143Z,49.40
2018-02-09T10:07:35.715Z,42.90
2018-02-09T10:10:04.041Z,42.72
2018-02-09T10:12:31.605Z,39.00
2018-02-09T10:14:59.158Z,42.00
2018-02-09T10:17:26.962Z,40.30
2018-02-09T10:19:54.825Z,34.90
2018-02-09T10:22:22.394Z,39.20
2018-02-09T10:24:50.782Z,45.30
2018-02-09T10:27:18.957Z,42.17
2018-02-09T10:29:46.618Z,42.53
2018-02-09T10:32:14.197Z,41.35
2018-02-09T10:34:41.753Z,47.08
2018-02-09T10:37:09.340Z,41.20
2018-02-09T10:39:36.901Z,40.00
2018-02-09T10:42:04.472Z,41.30
2018-02-09T10:44:32.037Z,43.33
2018-02-09T10:47:00.604Z,39.85
2018-02-09T10:49:28.177Z,39.50
2018-02-09T10:51:55.835Z,40.72
2018-02-09T10:54:23.388Z,39.78
2018-02-09T10:56:50.940Z,40.40
2018-02-09T10:59:18.518Z,38.42
2018-02-09T11:01:46.078Z,38.88
2018-02-09T11:04:13.761Z,37.45
2018-02-09T11:06:41.437Z,37.05
2018-02-09T11:09:09.010Z,39.45
2018-02-09T11:11:36.565Z,37.65
2018-02-09T11:14:04.185Z,36.03
2018-02-09T11:16:31.769Z,37.80
2018-02-09T11:18:59.336Z,34.97
2018-02-09T11:21:26.985Z,40.22
2018-02-09T11:23:54.533Z,38.03
2018-02-09T11:26:23.157Z,35.53
2018-02-09T11:28:50.724Z,32.53
2018-02-09T11:31:18.318Z,36.65
2018-02-09T11:33:46.657Z,35.53
2018-02-09T11:36:14.230Z,34.60
2018-02-09T11:38:41.801Z,35.45
2018-02-09T11:41:10.393Z,36.70
2018-02-09T11:43:38.738Z,38.10
2018-02-09T11:46:06.333Z,41.08
2018-02-09T11:48:34.679Z,39.42
2018-02-09T11:51:02.258Z,36.45
2018-02-09T11:53:29.875Z,35.15
2018-02-09T11:55:57.474Z,34.70
2018-02-09T11:58:25.073Z,35.63
2018-02-09T12:00:53.485Z,38.38
2018-02-09T12:03:21.368Z,36.90
2018-02-09T12:05:50.778Z,39.53
2018-02-09T12:08:19.112Z,39.40
2018-02-09T12:10:46.695Z,35.15
2018-02-09T12:13:14.338Z,29.02
2018-02-09T12:15:41.925Z,35.60
2018-02-09T12:18:10.395Z,30.40
2018-02-09T12:20:37.966Z,38.38
2018-02-09T12:23:05.554Z,35.63
2018-02-09T12:25:33.302Z,36.92
2018-02-09T12:28:01.674Z,36.75
2018-02-09T12:30:30.061Z,36.03
2018-02-09T12:32:58.630Z,33.80
2018-02-09T12:35:26.271Z,35.50
2018-02-09T12:37:53.845Z,29.55
2018-02-09T12:40:21.391Z,32.28
2018-02-09T12:42:48.995Z,33.45
2018-02-09T12:45:17.313Z,33.22
2018-02-09T12:47:44.960Z,27.65
2018-02-09T12:50:12.805Z,32.22
2018-02-09T12:52:41.152Z,30.58
2018-02-09T12:55:09.422Z,31.10
2018-02-09T12:57:37.833Z,32.97
2018-02-09T13:00:05.416Z,32.60
2018-02-09T13:02:33.759Z,30.55
2018-02-09T13:05:01.303Z,26.73
2018-02-09T13:07:28.914Z,32.78
2018-02-09T13:09:57.241Z,32.60
2018-02-09T13:12:49.529Z,32.00
2018-02-09T13:15:17.917Z,32.50
2018-02-09T13:17:46.384Z,32.65
2018-02-09T13:20:16.305Z,30.17
2018-02-09T13:22:55.797Z,29.85
2018-02-09T13:25:33.756Z,32.17
2018-02-09T13:28:01.401Z,29.55
2018-02-09T13:30:28.966Z,32.63
2018-02-09T13:33:08.442Z,31.23
2018-02-09T13:35:36.074Z,34.95
2018-02-09T13:38:03.622Z,24.45
2018-02-09T13:40:31.214Z,31.23
2018-02-09T13:42:58.806Z,30.45
2018-02-09T13:45:26.426Z,34.05
2018-02-09T13:47:53.964Z,37.17
2018-02-09T13:50:21.602Z,35.63
2018-02-09T13:52:49.958Z,32.80
2018-02-09T13:55:18.528Z,32.08
2018-02-09T13:57:46.258Z,33.47
2018-02-09T14:00:13.824Z,32.92
2018-02-09T14:02:41.400Z,33.05
2018-02-09T14:05:09.863Z,29.98
2018-02-09T14:07:37.514Z,24.63
2018-02-09T14:10:05.954Z,32.40
2018-02-09T14:12:43.432Z,30.60
2018-02-09T14:15:11.213Z,25.48
2018-02-09T14:17:38.803Z,26.85
2018-02-09T14:20:06.349Z,24.27
2018-02-09T14:22:33.902Z,22.50
2018-02-09T14:25:01.505Z,22.75
2018-02-09T14:27:29.844Z,19.35
2018-02-09T14:29:57.683Z,20.75
2018-02-09T14:32:25.228Z,23.40
2018-02-09T14:34:52.833Z,21.17
2018-02-09T14:37:20.412Z,22.48
2018-02-09T14:39:47.987Z,23.12
2018-02-09T14:42:15.610Z,21.05
2018-02-09T14:44:43.182Z,19.75
2018-02-09T14:47:10.734Z,18.80
2018-02-09T14:49:38.372Z,19.50
2018-02-09T14:52:06.962Z,19.35
2018-02-09T14:54:34.513Z,18.08
2018-02-09T14:57:02.099Z,19.23
2018-02-09T14:59:29.752Z,19.35
2018-02-09T15:01:57.320Z,18.73
2018-02-09T15:04:24.923Z,13.32
2018-02-09T15:06:53.241Z,17.30
2018-02-09T15:09:20.815Z,20.23
2018-02-09T15:11:48.394Z,18.35
2018-02-09T15:14:15.969Z,16.30
2018-02-09T15:16:43.579Z,17.15
2018-02-09T15:19:11.918Z,16.33
2018-02-09T15:21:39.464Z,17.30
2018-02-09T15:24:07.046Z,17.17
2018-02-09T15:26:34.656Z,17.85
2018-02-09T15:29:02.273Z,17.42
2018-02-09T15:31:29.915Z,15.85
2018-02-09T15:33:57.495Z,17.90
2018-02-09T15:36:25.062Z,16.30
2018-02-09T15:38:52.629Z,14.40
2018-02-09T15:41:20.192Z,15.90
2018-02-09T15:43:47.845Z,15.35
2018-02-09T15:46:15.539Z,15.30
2018-02-09T15:48:43.953Z,15.85
2018-02-09T15:51:11.538Z,14.18
2018-02-09T15:53:39.141Z,14.30
2018-02-09T15:56:07.589Z,15.13
2018-02-09T15:58:35.179Z,16.27
2018-02-09T16:01:03.518Z,13.90
2018-02-09T16:03:31.081Z,13.75
2018-02-09T16:05:58.677Z,14.75
2018-02-09T16:08:26.252Z,12.60
2018-02-09T16:10:54.597Z,13.13
2018-02-09T16:13:22.226Z,13.13
2018-02-09T16:15:49.822Z,15.57
2018-02-09T16:18:17.441Z,15.60
2018-02-09T16:20:45.316Z,14.23
2018-02-09T16:23:12.879Z,17.33
2018-02-09T16:25:40.457Z,15.70
2018-02-09T16:28:08.056Z,16.67
2018-02-09T16:30:35.645Z,17.45
2018-02-09T16:33:03.198Z,18.65
2018-02-09T16:35:30.784Z,15.57
2018-02-09T16:37:58.340Z,14.55
2018-02-09T16:40:26.004Z,13.75
2018-02-09T16:42:53.577Z,15.52
2018-02-09T16:45:21.186Z,14.27
2018-02-09T16:47:48.849Z,16.85
2018-02-09T16:50:17.225Z,15.40
2018-02-09T16:52:44.910Z,15.75
2018-02-09T16:55:13.233Z,11.48
2018-02-09T16:57:40.811Z,15.57
2018-02-09T17:00:08.408Z,15.98
2018-02-09T17:02:36.040Z,13.32
2018-02-09T17:05:03.819Z,14.43
2018-02-09T17:07:31.386Z,16.15
2018-02-09T17:09:59.761Z,15.10
2018-02-09T17:12:27.309Z,13.80
2018-02-09T17:14:54.877Z,15.90
2018-02-09T17:17:22.444Z,18.00
2018-02-09T17:19:50.070Z,14.13
2018-02-09T17:22:17.638Z,16.70
2018-02-09T17:24:45.260Z,16.05
2018-02-09T17:27:13.564Z,14.87
2018-02-09T17:29:41.180Z,12.70
2018-02-09T17:32:09.560Z,15.93
2018-02-09T17:34:37.114Z,15.40
2018-02-09T17:37:04.739Z,17.42
2018-02-09T17:39:32.315Z,16.58
2018-02-09T17:41:59.894Z,19.27
2018-02-09T17:44:27.469Z,15.50
2018-02-09T17:46:55.074Z,14.50
2018-02-09T17:49:23.393Z,15.88
2018-02-09T17:51:51.733Z,16.10
2018-02-09T17:54:19.335Z,12.55
2018-02-09T17:56:46.911Z,13.70
2018-02-09T17:59:14.515Z,14.55
2018-02-09T18:01:42.085Z,17.23
2018-02-09T18:04:09.757Z,15.90
2018-02-09T18:06:37.317Z,13.73
2018-02-09T18:09:05.050Z,13.60
2018-02-09T18:11:32.598Z,13.70
2018-02-09T18:14:00.930Z,14.68
2018-02-09T18:16:28.561Z,13.88
2018-02-09T18:18:56.121Z,14.00
2018-02-09T18:21:23.709Z,13.95
2018-02-09T18:23:51.303Z,12.10
2018-02-09T18:26:18.890Z,12.37
2018-02-09T18:28:46.443Z,12.18
2018-02-09T18:31:14.877Z,12.65
2018-02-09T18:33:42.511Z,13.55
2018-02-09T18:36:11.035Z,13.25
2018-02-09T18:38:38.609Z,12.07
2018-02-09T18:41:06.219Z,11.88
2018-02-09T18:43:33.837Z,11.38
2018-02-09T18:46:01.450Z,11.68
2018-02-09T18:48:29.042Z,12.02
2018-02-09T18:50:56.716Z,13.90
2018-02-09T18:53:24.402Z,10.88
2018-02-09T18:55:52.072Z,13.25
2018-02-09T18:58:20.484Z,12.15
2018-02-09T19:00:48.111Z,12.13
2018-02-09T19:03:16.449Z,12.37
2018-02-09T19:05:44.014Z,11.43
2018-02-09T19:08:11.628Z,13.62
2018-02-09T19:10:39.306Z,14.05
2018-02-09T19:13:07.615Z,12.35
2018-02-09T19:15:35.163Z,12.43
2018-02-09T19:18:02.888Z,11.57
2018-02-09T19:20:30.577Z,11.82
2018-02-09T19:22:58.162Z,10.70
2018-02-09T19:25:25.793Z,11.98
2018-02-09T19:27:53.393Z,12.37
2018-02-09T19:30:21.105Z,11.30
2018-02-09T19:32:48.695Z,12.60
2018-02-09T19:35:16.359Z,12.68
2018-02-09T19:37:43.941Z,12.50
2018-02-09T19:40:11.510Z,12.88
2018-02-09T19:42:39.129Z,13.30
2018-02-09T19:45:06.961Z,13.00
2018-02-09T19:47:35.302Z,12.77
2018-02-09T19:50:02.910Z,11.25
2018-02-09T19:52:30.614Z,13.15
2018-02-09T19:54:58.205Z,12.90
2018-02-09T19:57:25.778Z,11.70
2018-02-09T19:59:53.521Z,14.32
2018-02-09T20:02:21.247Z,13.80
2018-02-09T20:04:49.578Z,13.00
2018-02-09T20:07:17.169Z,12.95
2018-02-09T20:09:44.724Z,15.10
2018-02-09T20:12:12.363Z,14.25
2018-02-09T20:14:39.953Z,13.15
2018-02-09T20:17:07.517Z,13.88
2018-02-09T20:19:35.858Z,14.93
2018-02-09T20:22:03.626Z,13.50
2018-02-09T20:24:31.225Z,12.65
2018-02-09T20:26:59.609Z,14.87
2018-02-09T20:29:27.955Z,13.77
2018-02-09T20:31:55.642Z,14.02
2018-02-09T20:34:23.189Z,14.73
2018-02-09T20:36:50.777Z,14.50
2018-02-09T20:39:19.161Z,15.52
2018-02-09T20:41:47.518Z,13.98
2018-02-09T20:44:15.108Z,16.10
2018-02-09T20:46:43.685Z,16.08
2018-02-09T20:49:12.127Z,15.30
2018-02-09T20:51:39.907Z,14.15
2018-02-09T20:54:07.558Z,16.80
2018-02-09T20:56:35.410Z,15.50
2018-02-09T20:59:03.033Z,15.65
2018-02-09T21:01:31.366Z,14.48
2018-02-09T21:03:59.035Z,14.43
2018-02-09T21:06:26.921Z,14.87
2018-02-09T21:08:55.641Z,14.25
2018-02-09T21:11:24.154Z,15.05
2018-02-09T21:13:52.071Z,14.77
2018-02-09T21:16:21.697Z,16.67
2018-02-09T21:18:50.120Z,15.73
2018-02-09T21:21:18.020Z,14.07
2018-02-09T21:23:45.708Z,14.25
2018-02-09T21:26:13.468Z,15.82
2018-02-09T21:28:41.871Z,18.17
2018-02-09T21:31:09.643Z,16.80
2018-02-09T21:33:37.234Z,16.73
2018-02-09T21:36:06.047Z,16.62
2018-02-09T21:38:33.787Z,15.63
2018-02-09T21:41:01.562Z,15.57
2018-02-09T21:43:29.367Z,16.73
2018-02-09T21:45:57.053Z,18.23
2018-02-09T21:48:24.848Z,17.80
2018-02-09T21:50:52.554Z,17.50
2018-02-09T21:53:21.062Z,18.45
2018-02-09T21:55:48.780Z,18.67
2018-02-09T21:58:17.246Z,19.55
2018-02-09T22:00:45.717Z,18.58
2018-02-09T22:03:13.326Z,19.17
2018-02-09T22:05:41.875Z,22.45
2018-02-09T22:08:09.866Z,20.25
2018-02-09T22:10:37.523Z,19.23
2018-02-09T22:13:05.955Z,19.75
2018-02-09T22:15:33.506Z,16.02
2018-02-09T22:18:01.197Z,17.35
2018-02-09T22:20:28.769Z,19.52
2018-02-09T22:22:56.375Z,19.25
2018-02-09T22:25:24.700Z,21.25
2018-02-09T22:27:52.368Z,19.77
2018-02-09T22:30:19.925Z,18.08
2018-02-09T22:32:47.521Z,20.15
2018-02-09T22:35:15.889Z,19.95
2018-02-09T22:37:43.524Z,21.45
2018-02-09T22:40:11.375Z,19.23
2018-02-09T22:42:38.979Z,19.77
2018-02-09T22:45:06.545Z,18.60
2018-02-09T22:47:34.101Z,19.50
2018-02-09T22:50:01.687Z,19.70
2018-02-09T22:52:29.239Z,20.33
2018-02-09T22:54:56.826Z,19.05
2018-02-09T22:57:25.290Z,18.48
2018-02-09T22:59:52.843Z,17.87
2018-02-09T23:02:20.452Z,17.83
2018-02-09T23:04:48.039Z,20.65
2018-02-09T23:07:15.797Z,17.83
2018-02-09T23:09:43.361Z,19.00
2018-02-09T23:12:11.159Z,20.00
2018-02-09T23:14:38.725Z,17.58
2018-02-09T23:17:07.087Z,17.75
2018-02-09T23:19:34.772Z,18.65
2018-02-09T23:22:03.112Z,20.62
2018-02-09T23:24:30.706Z,20.83
2018-02-09T23:26:58.280Z,20.67
2018-02-09T23:29:26.645Z,20.30
2018-02-09T23:31:54.367Z,18.73
2018-02-09T23:34:22.555Z,20.48
2018-02-09T23:36:50.189Z,19.00
2018-02-09T23:39:17.784Z,17.90
2018-02-09T23:41:45.362Z,20.30
2018-02-09T23:44:12.923Z,21.00
2018-02-09T23:46:40.520Z,19.40
2018-02-09T23:49:08.845Z,21.50
2018-02-09T23:51:36.431Z,19.62
2018-02-09T23:54:04.107Z,19.48
2018-02-09T23:56:32.478Z,19.77
2018-02-09T23:59:00.048Z,19.67
